Time;durP1;ratioP1;P1;durP2;ratioP2;P2;SDS_P1;SDS_P2;PMS_P1;PMS_P2;Temp;Humidity;BMP_temperature;BMP_pressure;BME280_temperature;BME280_humidity;BME280_pressure;Samples;Min_cycle;Max_cycle;Signal;HPM_P1;HPM_P2
2022/02/09 07:44:42;;;;;;;;;16.25;13.25;;;;;17.57;57.30;102540.25;5102259;27;46727;-74
2022/02/09 07:53:02;;;;;;;;;17.75;14.25;;;;;18.50;56.57;102525.19;5063138;28;45492;-73
2022/02/09 07:55:27;;;;;;;;;18.00;14.25;;;;;18.85;55.84;102524.03;5059123;28;45592;-72
2022/02/09 07:57:55;;;;;;;;;17.75;16.75;;;;;19.12;55.70;102531.41;5060557;28;45534;-72
2022/02/09 08:00:20;;;;;;;;;16.25;13.00;;;;;19.39;54.98;102533.28;5064492;28;45761;-73
2022/02/09 08:02:47;;;;;;;;;13.50;12.50;;;;;19.62;54.52;102532.69;5064803;27;45853;-71
2022/02/09 08:05:12;;;;;;;;;14.00;14.00;;;;;19.84;53.57;102531.31;5063464;28;45428;-78
2022/02/09 08:07:37;;;;;;;;;18.50;17.00;;;;;20.05;53.41;102540.78;5061230;27;45689;-73
2022/02/09 08:10:03;;;;;;;;;15.50;13.50;;;;;20.24;52.86;102517.03;5063118;27;45583;-74
2022/02/09 08:20:29;;;;;;;;;13.25;13.25;;;;;21.09;52.02;102525.69;5062043;28;45412;-73
2022/02/09 10:02:51;;;;;;;;;22.00;16.25;;;;;21.29;50.28;102459.44;5028824;27;45418;-75
2022/02/09 10:33:03;;;;;;;;;22.00;13.67;;;;;23.27;47.81;102454.41;5017451;27;45457;-75
2022/02/09 10:35:33;;;;;;;;;14.67;14.33;;;;;23.42;47.82;102464.00;5017803;27;45626;-75
2022/02/09 10:38:16;;;;;;;;;18.33;15.00;;;;;23.56;47.68;102462.03;5023857;28;45575;-73
2022/02/09 10:40:47;;;;;;;;;18.00;14.67;;;;;23.68;47.24;102458.31;5024170;27;45539;-71
2022/02/09 10:43:33;;;;;;;;;14.67;13.67;;;;;23.80;47.01;102452.81;5000817;28;45453;-75
2022/02/09 10:46:15;;;;;;;;;18.67;12.67;;;;;23.90;47.22;102444.75;4999347;28;45480;-71
2022/02/09 10:49:06;;;;;;;;;14.67;13.33;;;;;23.98;47.08;102444.97;5013105;28;46220;-76
2022/02/09 10:54:18;;;;;;;;;18.67;15.00;;;;;24.05;45.71;102446.19;5008909;28;45558;-74
2022/02/09 10:56:51;;;;;;;;;22.00;14.00;;;;;24.05;45.17;102432.63;5006328;27;45734;-79
2022/02/09 10:59:20;;;;;;;;;24.67;19.00;;;;;24.04;45.47;102420.03;5006312;28;46369;-74
2022/02/09 11:01:46;;;;;;;;;18.33;15.33;;;;;24.16;45.22;102423.59;5013829;27;45549;-75
2022/02/09 11:04:13;;;;;;;;;18.67;15.67;;;;;24.21;45.34;102424.03;5009796;28;45550;-76
2022/02/09 11:06:42;;;;;;;;;20.00;16.33;;;;;24.28;45.17;102418.94;5008352;28;45494;-74
2022/02/09 11:09:10;;;;;;;;;17.33;15.67;;;;;24.36;45.25;102420.16;5008277;28;45510;-73
2022/02/09 11:11:38;;;;;;;;;20.67;18.67;;;;;24.37;45.10;102406.44;5006590;28;45611;-75
2022/02/09 11:14:04;;;;;;;;;17.67;14.33;;;;;24.42;45.18;102412.34;5007789;27;45487;-75
2022/02/09 11:16:31;;;;;;;;;15.67;13.67;;;;;24.45;45.14;102408.50;5006240;28;45884;-75
2022/02/09 11:18:57;;;;;;;;;16.00;13.00;;;;;24.47;45.15;102409.19;5021157;27;45558;-73
2022/02/09 11:21:32;;;;;;;;;17.67;16.67;;;;;24.50;45.25;102414.38;5007850;27;45525;-72
2022/02/09 11:24:09;;;;;;;;;21.33;18.33;;;;;24.52;44.99;102406.94;5007468;28;45485;-74
2022/02/09 11:27:10;;;;;;;;;20.00;14.67;;;;;24.56;44.42;102413.81;5007987;27;45464;-71
2022/02/09 11:29:46;;;;;;;;;11.33;11.33;;;;;24.55;43.38;102406.69;5001666;28;46077;-71
2022/02/09 11:34:54;;;;;;;;;16.00;13.33;;;;;24.55;41.80;102406.69;4995082;28;45553;-71
2022/02/09 11:37:49;;;;;;;;;15.00;14.33;;;;;24.56;41.49;102394.81;5005575;28;46675;-72
2022/02/09 11:41:05;;;;;;;;;15.33;14.00;;;;;24.56;40.73;102389.41;4996740;27;47313;-73
2022/02/09 12:19:02;;;;;;;;;25.67;23.00;;;;;23.76;38.56;102345.63;5005029;27;45633;-73
2022/02/09 12:22:14;;;;;;;;;21.33;20.00;;;;;23.77;38.83;102337.38;5009006;28;45550;-74
2022/02/09 12:24:41;;;;;;;;;20.00;17.33;;;;;23.81;39.45;102333.41;5010718;28;46405;-73
2022/02/09 12:27:15;;;;;;;;;21.00;17.33;;;;;23.87;39.49;102337.44;5004600;27;45812;-72
2022/02/09 12:29:56;;;;;;;;;24.00;18.00;;;;;23.93;39.79;102327.91;5006867;28;45427;-73
2022/02/09 12:32:24;;;;;;;;;16.33;14.67;;;;;24.00;39.88;102330.94;5005598;28;45795;-73
2022/02/09 12:34:58;;;;;;;;;18.00;18.00;;;;;24.07;40.25;102329.41;5006589;28;45703;-76
2022/02/09 12:37:25;;;;;;;;;16.00;15.00;;;;;24.10;40.31;102325.63;5006667;28;45513;-73
2022/02/09 12:39:53;;;;;;;;;19.33;16.67;;;;;24.14;40.55;102322.50;5008632;28;45639;-72
2022/02/09 12:42:20;;;;;;;;;19.67;18.00;;;;;24.19;40.52;102325.66;5008090;28;45498;-71
2022/02/09 12:45:05;;;;;;;;;16.67;13.00;;;;;24.25;40.94;102313.44;5008171;27;46132;-71
2022/02/09 12:47:32;;;;;;;;;20.00;16.33;;;;;24.31;41.36;102314.72;5005705;28;45481;-71
2022/02/09 12:49:58;;;;;;;;;15.00;12.67;;;;;24.37;41.12;102300.63;5003123;28;45469;-71
2022/02/09 12:52:29;;;;;;;;;16.67;15.67;;;;;24.42;40.82;102303.78;5004854;28;45349;-70
2022/02/09 12:55:29;;;;;;;;;23.33;15.67;;;;;24.46;41.00;102299.81;5005040;27;46171;-70
2022/02/09 12:58:01;;;;;;;;;17.00;14.00;;;;;24.49;40.88;102290.53;5015565;27;45455;-73
2022/02/09 13:00:40;;;;;;;;;17.00;14.00;;;;;24.53;41.27;102304.66;5008896;28;45546;-73
2022/02/09 13:03:08;;;;;;;;;15.67;15.00;;;;;24.55;41.53;102295.41;5006566;28;45493;-73
2022/02/09 13:05:48;;;;;;;;;18.67;16.33;;;;;24.58;41.23;102289.69;5005606;27;46175;-73
2022/02/09 13:08:28;;;;;;;;;17.67;12.33;;;;;24.61;41.68;102281.25;5006835;28;45497;-73
2022/02/09 13:11:06;;;;;;;;;18.67;14.00;;;;;24.67;41.60;102285.28;5005432;27;45529;-73
2022/02/09 13:13:35;;;;;;;;;17.00;14.00;;;;;24.69;41.75;102277.00;5005201;28;45497;-74
2022/02/09 13:23:57;;;;;;;;;16.33;15.67;;;;;24.86;41.86;102261.91;5006881;27;45485;-73
2022/02/09 14:11:24;;;;;;;;;11.00;11.00;;;;;25.42;42.37;102212.44;4976749;28;45388;-72
2022/02/09 14:14:02;;;;;;;;;17.67;14.67;;;;;25.39;42.25;102197.28;4971036;28;45365;-72
2022/02/09 15:10:35;;;;;;;;;14.00;11.50;;;;;20.84;48.05;102162.22;5063084;28;45429;-74
2022/02/09 15:15:52;;;;;;;;;11.67;10.00;;;;;21.15;47.48;102149.09;5056068;28;45557;-76
2022/02/09 15:20:50;;;;;;;;;13.00;9.67;;;;;21.50;47.76;102145.47;5058482;28;45443;-74
2022/02/09 15:23:18;;;;;;;;;16.33;13.67;;;;;21.40;47.49;102101.25;5059538;28;45726;-75
2022/02/09 15:25:43;;;;;;;;;14.67;14.00;;;;;21.88;46.12;102148.84;5067440;28;56059;-76
2022/02/09 15:28:10;;;;;;;;;18.33;14.00;;;;;21.98;45.65;102162.47;5064105;28;45436;-72
2022/02/09 15:30:46;;;;;;;;;14.00;12.00;;;;;22.06;45.95;102151.03;5061279;28;45533;-71
2022/02/09 15:33:13;;;;;;;;;17.67;12.33;;;;;22.11;45.49;102149.69;5067591;27;45499;-71
2022/02/09 15:35:41;;;;;;;;;13.33;10.33;;;;;22.21;45.51;102151.63;5063738;28;45538;-71
2022/02/09 15:41:12;;;;;;;;;18.67;13.00;;;;;22.31;45.43;102163.41;5057137;27;45732;-71
2022/02/09 16:05:36;;;;;;;;;23.25;19.00;;;;;22.57;42.82;102135.22;5041535;28;46387;-71
2022/02/09 16:51:23;;;;;;;;;35.00;23.00;;;;;22.96;45.55;102096.78;4916099;28;45539;-72
2022/02/09 17:15:42;;;;;;;;;27.67;19.33;;;;;23.21;45.73;102089.25;4952051;28;45552;-72
2022/02/09 17:20:52;;;;;;;;;23.67;20.33;;;;;23.29;45.39;102084.88;4948737;28;45572;-68
2022/02/09 17:23:18;;;;;;;;;20.33;17.67;;;;;23.30;44.83;102074.91;4983979;28;46887;-71
2022/02/09 17:25:44;;;;;;;;;31.00;24.00;;;;;23.36;44.58;102084.34;5000712;28;45840;-78
2022/02/09 17:28:13;;;;;;;;;22.67;17.00;;;;;23.42;44.30;102078.44;4995574;28;45448;-74
2022/02/09 17:33:12;;;;;;;;;23.00;21.00;;;;;23.56;44.37;102085.31;5009551;28;45580;-76
2022/02/09 17:36:37;;;;;;;;;27.33;19.33;;;;;23.62;44.60;102084.75;5006515;28;46343;-73
2022/02/09 17:57:09;;;;;;;;;22.00;20.00;;;;;23.76;42.85;102078.13;5041719;28;45515;-72
2022/02/09 17:59:43;;;;;;;;;24.67;21.33;;;;;23.72;42.73;102079.38;5035491;28;45751;-71
2022/02/09 18:02:08;;;;;;;;;27.00;18.67;;;;;23.64;43.12;102074.66;5044636;28;45777;-71
2022/02/09 18:04:34;;;;;;;;;19.67;17.00;;;;;23.53;42.95;102075.59;5051871;28;45947;-72
2022/02/09 18:07:04;;;;;;;;;19.67;19.67;;;;;23.48;43.13;102079.72;5047207;28;46994;-72
2022/02/09 18:09:37;;;;;;;;;22.33;21.67;;;;;23.38;43.13;102075.09;5053018;28;45437;-71
2022/02/09 18:12:17;;;;;;;;;25.67;21.33;;;;;23.29;42.74;102084.00;5046936;28;45446;-72
2022/02/09 18:26:10;;;;;;;;;28.00;20.67;;;;;22.99;43.42;102078.44;5043863;28;45499;-71
2022/02/09 18:31:10;;;;;;;;;22.33;18.33;;;;;22.87;43.56;102069.53;5046323;28;45523;-71
2022/02/09 18:44:25;;;;;;;;;23.75;20.75;;;;;22.60;44.09;102045.69;5046495;28;45427;-71
2022/02/09 19:03:27;;;;;;;;;18.75;18.75;;;;;22.53;44.26;102041.75;5036911;28;45651;-71
2022/02/09 19:05:55;;;;;;;;;24.00;19.25;;;;;22.51;44.52;102041.88;5048405;28;45815;-71
2022/02/09 19:16:47;;;;;;;;;24.25;21.25;;;;;22.47;44.01;102043.09;5043654;28;45612;-71
2022/02/09 19:29:59;;;;;;;;;27.00;27.00;;;;;22.43;43.61;102028.16;5046684;28;45534;-71
2022/02/09 19:48:14;;;;;;;;;27.25;24.75;;;;;22.35;44.10;102013.41;5039104;28;45450;-70
2022/02/09 19:55:41;;;;;;;;;28.75;26.50;;;;;22.36;44.03;102009.72;5045463;28;45626;-71
2022/02/09 19:58:08;;;;;;;;;23.25;22.00;;;;;22.39;44.58;102016.72;5039363;28;45419;-71
2022/02/09 20:00:36;;;;;;;;;27.25;21.75;;;;;22.41;44.14;102016.59;5056355;28;46215;-70
